createdAt,value
2018-10-01T00:00:56.305Z,5.50
2018-10-01T00:03:24.981Z,6.50
2018-10-01T00:05:53.580Z,6.07
2018-10-01T00:08:22.222Z,5.80
2018-10-01T00:10:50.780Z,5.63
2018-10-01T00:13:19.682Z,6.70
2018-10-01T00:15:48.360Z,6.13
2018-10-01T00:18:16.921Z,6.20
2018-10-01T00:20:50.787Z,6.17
2018-10-01T00:23:20.292Z,5.83
2018-10-01T00:25:49.029Z,5.77
2018-10-01T00:28:17.520Z,5.17
2018-10-01T00:30:45.978Z,5.37
2018-10-01T00:33:14.480Z,5.27
2018-10-01T00:35:42.951Z,5.13
2018-10-01T00:38:11.653Z,5.50
2018-10-01T00:40:40.814Z,5.43
2018-10-01T00:43:09.681Z,5.90
2018-10-01T00:45:38.736Z,5.93
2018-10-01T00:48:07.739Z,5.23
2018-10-01T00:50:36.250Z,5.90
2018-10-01T00:53:05.264Z,5.63
2018-10-01T00:55:34.322Z,5.37
2018-10-01T00:58:02.806Z,6.27
2018-10-01T01:00:31.523Z,5.60
2018-10-01T01:03:00.513Z,5.50
2018-10-01T01:05:29.325Z,5.13
2018-10-01T01:07:57.789Z,4.83
2018-10-01T01:10:26.279Z,5.60
2018-10-01T01:12:54.948Z,4.67
2018-10-01T01:15:23.438Z,4.60
2018-10-01T01:17:52.242Z,4.40
2018-10-01T01:20:21.178Z,4.57
2018-10-01T01:22:50.076Z,4.50
2018-10-01T01:25:18.655Z,4.20
2018-10-01T01:27:47.555Z,3.70
2018-10-01T01:30:16.451Z,4.40
2018-10-01T01:32:45.520Z,4.40
2018-10-01T01:35:14.076Z,4.17
2018-10-01T01:37:42.619Z,4.13
2018-10-01T01:40:11.838Z,3.73
2018-10-01T01:42:40.491Z,3.73
2018-10-01T01:45:09.021Z,4.03
2018-10-01T01:47:37.547Z,4.03
2018-10-01T01:50:06.084Z,3.60
2018-10-01T01:52:34.569Z,3.80
2018-10-01T01:55:03.136Z,4.03
2018-10-01T01:57:31.642Z,4.80
2018-10-01T02:00:00.118Z,5.07
2018-10-01T02:02:28.681Z,4.80
2018-10-01T02:04:57.240Z,5.07
2018-10-01T02:07:25.755Z,4.90
2018-10-01T02:09:54.387Z,5.47
2018-10-01T02:12:22.871Z,5.93
2018-10-01T02:14:51.398Z,6.17
2018-10-01T02:17:19.973Z,6.93
2018-10-01T02:19:48.431Z,8.07
2018-10-01T02:22:16.935Z,7.00
2018-10-01T02:24:45.466Z,7.13
2018-10-01T02:27:13.870Z,6.87
2018-10-01T02:29:42.404Z,6.73
2018-10-01T02:32:10.935Z,6.17
2018-10-01T02:34:39.438Z,6.10
2018-10-01T02:37:08.065Z,5.13
2018-10-01T02:39:36.548Z,5.20
2018-10-01T02:42:05.087Z,5.67
2018-10-01T02:44:33.669Z,5.57
2018-10-01T02:47:02.228Z,4.97
2018-10-01T02:49:30.710Z,4.73
2018-10-01T02:52:04.453Z,4.27
2018-10-01T02:54:33.835Z,4.70
2018-10-01T02:57:03.057Z,3.90
2018-10-01T02:59:31.512Z,3.73
2018-10-01T03:02:00.014Z,3.83
2018-10-01T03:04:28.809Z,3.40
2018-10-01T03:06:57.179Z,3.37
2018-10-01T03:09:25.583Z,3.07
2018-10-01T03:11:54.076Z,3.17
2018-10-01T03:14:22.550Z,2.70
2018-10-01T03:16:50.946Z,2.60
2018-10-01T03:19:19.414Z,2.07
2018-10-01T03:21:47.831Z,1.93
2018-10-01T03:24:16.313Z,2.03
2018-10-01T03:26:44.823Z,1.80
2018-10-01T03:29:13.289Z,1.50
2018-10-01T03:31:41.793Z,1.43
2018-10-01T03:34:10.263Z,1.50
2018-10-01T03:36:38.659Z,1.83
2018-10-01T03:39:09.070Z,1.33
2018-10-01T03:41:37.705Z,1.63
2018-10-01T03:44:06.096Z,1.33
2018-10-01T03:46:34.565Z,1.30
2018-10-01T03:49:02.986Z,1.60
2018-10-01T03:51:31.597Z,1.90
2018-10-01T03:54:00.026Z,1.63
2018-10-01T03:56:28.513Z,1.20
2018-10-01T03:58:57.026Z,1.77
2018-10-01T04:01:25.560Z,1.77
2018-10-01T04:03:53.986Z,1.30
2018-10-01T04:06:22.489Z,2.37
2018-10-01T04:08:50.917Z,1.97
2018-10-01T04:11:19.322Z,2.30
2018-10-01T04:13:47.757Z,1.80
2018-10-01T04:16:16.195Z,1.47
2018-10-01T04:18:44.721Z,2.33
2018-10-01T04:21:13.111Z,1.47
2018-10-01T04:23:41.581Z,2.10
2018-10-01T04:26:09.994Z,1.87
2018-10-01T04:28:38.420Z,1.60
2018-10-01T04:31:07.343Z,1.47
2018-10-01T04:33:35.733Z,1.63
2018-10-01T04:36:04.125Z,1.07
2018-10-01T04:38:32.542Z,1.23
2018-10-01T04:41:00.878Z,1.70
2018-10-01T04:43:29.369Z,1.70
2018-10-01T04:45:57.773Z,1.80
2018-10-01T04:48:26.208Z,1.80
2018-10-01T04:50:54.798Z,1.90
2018-10-01T04:53:23.219Z,1.60
2018-10-01T04:55:51.643Z,2.00
2018-10-01T04:58:20.141Z,2.00
2018-10-01T05:00:48.553Z,1.83
2018-10-01T05:03:16.964Z,2.40
2018-10-01T05:05:45.393Z,2.80
2018-10-01T05:08:13.734Z,3.90
2018-10-01T05:10:42.288Z,5.50
2018-10-01T05:13:10.718Z,6.03
2018-10-01T05:15:39.233Z,6.40
2018-10-01T05:18:07.656Z,7.23
2018-10-01T05:20:36.057Z,9.70
2018-10-01T05:23:04.479Z,10.70
2018-10-01T05:25:33.210Z,11.47
2018-10-01T05:28:01.661Z,13.10
2018-10-01T05:30:30.044Z,12.37
2018-10-01T05:32:58.754Z,11.67
2018-10-01T05:35:27.118Z,13.10
2018-10-01T05:37:55.570Z,11.67
2018-10-01T05:40:23.914Z,10.70
2018-10-01T05:42:52.265Z,10.10
2018-10-01T05:45:20.842Z,9.57
2018-10-01T05:47:49.317Z,9.70
2018-10-01T05:50:17.669Z,9.77
2018-10-01T05:52:46.126Z,7.27
2018-10-01T05:55:14.841Z,7.80
2018-10-01T05:57:43.324Z,7.90
2018-10-01T06:00:12.415Z,7.47
2018-10-01T06:02:40.897Z,6.50
2018-10-01T06:05:09.548Z,7.00
2018-10-01T06:07:37.917Z,6.77
2018-10-01T06:10:06.298Z,7.83
2018-10-01T06:12:34.763Z,5.23
2018-10-01T06:15:03.217Z,4.67
2018-10-01T06:17:31.959Z,4.57
2018-10-01T06:20:00.406Z,4.70
2018-10-01T06:22:28.809Z,5.30
2018-10-01T06:24:57.279Z,4.03
2018-10-01T06:27:25.860Z,3.70
2018-10-01T06:29:54.440Z,4.00
2018-10-01T06:32:22.819Z,3.77
2018-10-01T06:34:51.235Z,3.50
2018-10-01T06:37:19.615Z,4.43
2018-10-01T06:39:48.129Z,3.77
2018-10-01T06:42:16.633Z,3.27
2018-10-01T06:44:45.048Z,3.30
2018-10-01T06:47:13.459Z,3.50
2018-10-01T06:49:42.032Z,2.73
2018-10-01T06:52:10.536Z,2.43
2018-10-01T06:54:38.948Z,2.10
2018-10-01T06:57:07.363Z,2.23
2018-10-01T06:59:35.744Z,2.23
2018-10-01T07:02:04.317Z,2.13
2018-10-01T07:04:32.687Z,2.33
2018-10-01T07:07:01.243Z,2.10
2018-10-01T07:09:29.919Z,2.00
2018-10-01T07:11:58.341Z,2.50
2018-10-01T07:14:26.895Z,2.13
2018-10-01T07:16:55.702Z,1.87
2018-10-01T07:19:24.468Z,1.83
2018-10-01T07:21:53.036Z,2.40
2018-10-01T07:24:21.468Z,2.03
2018-10-01T07:26:50.098Z,2.37
2018-10-01T07:29:18.633Z,1.97
2018-10-01T07:31:47.262Z,2.23
2018-10-01T07:34:15.905Z,1.73
2018-10-01T07:36:44.542Z,2.27
2018-10-01T07:39:12.980Z,1.90
2018-10-01T07:41:41.332Z,2.30
2018-10-01T07:44:09.811Z,2.33
2018-10-01T07:46:38.290Z,2.20
2018-10-01T07:49:06.651Z,2.43
2018-10-01T07:51:35.055Z,1.70
2018-10-01T07:54:03.487Z,2.23
2018-10-01T07:56:32.122Z,1.80
2018-10-01T07:59:00.597Z,1.50
2018-10-01T08:01:29.194Z,1.43
2018-10-01T08:03:57.618Z,1.37
2018-10-01T08:06:26.140Z,1.53
2018-10-01T08:08:54.601Z,1.90
2018-10-01T08:11:23.171Z,1.53
2018-10-01T08:13:51.704Z,1.70
2018-10-01T08:16:20.169Z,1.80
2018-10-01T08:18:48.652Z,1.00
2018-10-01T08:21:17.139Z,1.67
2018-10-01T08:23:45.543Z,1.57
2018-10-01T08:26:14.011Z,1.73
2018-10-01T08:28:42.325Z,2.47
2018-10-01T08:31:10.786Z,2.20
2018-10-01T08:33:39.308Z,1.50
2018-10-01T08:36:08.024Z,1.60
2018-10-01T08:38:36.687Z,1.80
2018-10-01T08:41:05.214Z,1.90
2018-10-01T08:43:33.703Z,1.57
2018-10-01T08:46:02.190Z,1.10
2018-10-01T08:48:31.558Z,1.63
2018-10-01T08:51:07.041Z,2.30
2018-10-01T08:53:39.729Z,1.60
2018-10-01T08:56:09.603Z,1.40
2018-10-01T08:58:38.261Z,2.20
2018-10-01T09:01:07.038Z,2.20
2018-10-01T09:03:35.699Z,1.40
2018-10-01T09:06:04.232Z,1.90
2018-10-01T09:08:32.777Z,1.70
2018-10-01T09:11:01.294Z,1.80
2018-10-01T09:13:29.731Z,3.73
2018-10-01T09:15:58.113Z,1.63
2018-10-01T09:18:26.618Z,2.07
2018-10-01T09:20:55.036Z,2.33
2018-10-01T09:23:23.465Z,1.67
2018-10-01T09:25:52.660Z,1.50
2018-10-01T09:28:21.066Z,1.90
2018-10-01T09:30:49.560Z,2.00
2018-10-01T09:33:18.014Z,2.00
2018-10-01T09:35:46.384Z,2.27
2018-10-01T09:38:14.939Z,1.93
2018-10-01T09:40:43.470Z,2.23
2018-10-01T09:43:12.024Z,1.90
2018-10-01T09:45:40.440Z,2.03
2018-10-01T09:48:08.919Z,2.27
2018-10-01T09:50:37.356Z,1.80
2018-10-01T09:53:05.853Z,1.80
2018-10-01T09:55:34.424Z,1.73
2018-10-01T09:58:03.033Z,1.80
2018-10-01T10:00:40.494Z,1.80
2018-10-01T10:03:09.644Z,2.13
2018-10-01T10:05:38.342Z,2.03
2018-10-01T10:08:06.770Z,2.60
2018-10-01T10:10:35.271Z,1.90
2018-10-01T10:13:03.798Z,1.80
2018-10-01T10:15:32.319Z,1.50
2018-10-01T10:18:00.784Z,1.87
2018-10-01T10:20:29.210Z,1.50
2018-10-01T10:22:57.640Z,1.57
2018-10-01T10:25:26.050Z,1.33
2018-10-01T10:27:54.443Z,1.93
2018-10-01T10:30:23.125Z,1.90
2018-10-01T10:32:51.473Z,1.67
2018-10-01T10:35:19.859Z,1.97
2018-10-01T10:37:48.252Z,1.73
2018-10-01T10:40:16.711Z,2.07
2018-10-01T10:42:45.128Z,2.30
2018-10-01T10:45:13.621Z,1.50
2018-10-01T10:47:42.073Z,2.50
2018-10-01T10:50:10.905Z,1.70
2018-10-01T10:52:39.455Z,1.27
2018-10-01T10:55:08.256Z,1.30
2018-10-01T10:57:36.675Z,1.43
2018-10-01T11:00:05.241Z,1.10
2018-10-01T11:02:33.695Z,1.60
2018-10-01T11:05:02.275Z,1.73
2018-10-01T11:07:30.746Z,1.30
2018-10-01T11:09:59.168Z,1.57
2018-10-01T11:12:27.604Z,1.30
2018-10-01T11:14:56.464Z,1.50
2018-10-01T11:17:24.739Z,1.70
2018-10-01T11:19:53.386Z,1.43
2018-10-01T11:22:21.763Z,1.73
2018-10-01T11:24:50.284Z,1.57
2018-10-01T11:27:18.752Z,1.40
2018-10-01T11:29:47.143Z,1.27
2018-10-01T11:32:15.662Z,1.10
2018-10-01T11:34:44.163Z,1.63
2018-10-01T11:37:12.511Z,1.53
2018-10-01T11:39:41.025Z,1.40
2018-10-01T11:42:09.501Z,2.20
2018-10-01T11:44:38.085Z,2.40
2018-10-01T11:47:06.552Z,2.30
2018-10-01T11:49:35.043Z,1.27
2018-10-01T11:52:03.462Z,1.20
2018-10-01T11:54:32.083Z,1.13
2018-10-01T11:57:00.863Z,1.10
2018-10-01T11:59:29.074Z,1.47
2018-10-01T12:01:57.726Z,2.50
2018-10-01T12:04:26.187Z,1.10
2018-10-01T12:06:54.565Z,1.70
2018-10-01T12:09:23.009Z,1.20
2018-10-01T12:11:51.451Z,2.03
2018-10-01T12:14:26.480Z,1.80
2018-10-01T12:16:54.954Z,2.23
2018-10-01T12:19:23.476Z,5.47
2018-10-01T12:21:52.418Z,3.47
2018-10-01T12:24:20.781Z,3.03
2018-10-01T12:26:49.211Z,2.23
2018-10-01T12:29:17.670Z,2.17
2018-10-01T12:31:46.096Z,1.70
2018-10-01T12:34:14.544Z,2.10
2018-10-01T12:36:42.901Z,1.67
2018-10-01T12:39:11.416Z,1.77
2018-10-01T12:41:39.826Z,2.67
2018-10-01T12:44:08.294Z,2.40
2018-10-01T12:46:36.832Z,2.00
2018-10-01T12:49:05.252Z,1.73
2018-10-01T12:51:33.798Z,1.90
2018-10-01T12:54:03.149Z,2.00
2018-10-01T12:56:31.474Z,1.83
2018-10-01T12:59:00.057Z,2.13
2018-10-01T13:01:28.979Z,2.43
2018-10-01T13:03:58.337Z,2.53
2018-10-01T13:06:26.982Z,2.00
2018-10-01T13:08:55.630Z,1.90
2018-10-01T13:11:24.245Z,1.53
2018-10-01T13:13:52.642Z,2.77
2018-10-01T13:16:21.089Z,1.50
2018-10-01T13:18:49.483Z,2.00
2018-10-01T13:21:17.906Z,2.27
2018-10-01T13:23:46.300Z,2.00
2018-10-01T13:26:14.764Z,2.10
2018-10-01T13:28:43.161Z,2.87
2018-10-01T13:31:11.749Z,2.10
2018-10-01T13:33:40.219Z,2.90
2018-10-01T13:36:08.878Z,2.03
2018-10-01T13:38:37.308Z,2.30
2018-10-01T13:41:05.734Z,2.00
2018-10-01T13:43:34.239Z,2.37
2018-10-01T13:46:02.761Z,2.90
2018-10-01T13:48:31.220Z,2.10
2018-10-01T13:50:59.564Z,1.83
2018-10-01T13:53:27.949Z,1.60
2018-10-01T13:55:56.345Z,4.20
2018-10-01T13:58:24.917Z,1.80
2018-10-01T14:00:53.557Z,2.40
2018-10-01T14:03:22.052Z,1.80
2018-10-01T14:05:50.483Z,1.73
2018-10-01T14:08:18.891Z,2.60
2018-10-01T14:10:47.352Z,2.30
2018-10-01T14:13:15.789Z,1.80
2018-10-01T14:15:44.287Z,2.30
2018-10-01T14:18:12.708Z,1.83
2018-10-01T14:20:41.412Z,1.93
2018-10-01T14:23:09.831Z,1.77
2018-10-01T14:25:38.337Z,2.07
2018-10-01T14:28:06.821Z,1.73
2018-10-01T14:30:35.447Z,1.80
2018-10-01T14:33:03.904Z,1.40
2018-10-01T14:35:32.402Z,1.40
2018-10-01T14:38:00.819Z,1.20
2018-10-01T14:40:29.431Z,1.80
2018-10-01T14:42:57.877Z,1.30
2018-10-01T14:45:26.293Z,1.47
2018-10-01T14:47:54.718Z,1.33
2018-10-01T14:50:24.903Z,1.47
2018-10-01T14:52:54.285Z,2.10
2018-10-01T14:55:22.921Z,1.33
2018-10-01T14:57:51.404Z,1.93
2018-10-01T15:00:19.928Z,3.30
2018-10-01T15:02:48.355Z,8.40
2018-10-01T15:05:16.953Z,5.00
2018-10-01T15:07:45.343Z,5.27
2018-10-01T15:10:13.998Z,4.60
2018-10-01T15:12:42.690Z,3.03
2018-10-01T15:15:11.161Z,2.40
2018-10-01T15:17:39.717Z,1.73
2018-10-01T15:20:08.099Z,2.50
2018-10-01T15:22:36.570Z,1.90
2018-10-01T15:25:05.035Z,2.30
2018-10-01T15:27:33.425Z,2.07
2018-10-01T15:30:01.894Z,2.50
2018-10-01T15:32:30.254Z,3.70
2018-10-01T15:34:58.689Z,3.10
2018-10-01T15:37:27.190Z,3.13
2018-10-01T15:39:55.593Z,3.47
2018-10-01T15:42:24.094Z,2.93
2018-10-01T15:44:52.780Z,3.57
2018-10-01T15:47:21.232Z,2.13
2018-10-01T15:49:50.015Z,2.37
2018-10-01T15:52:18.562Z,2.10
2018-10-01T15:54:47.395Z,2.40
2018-10-01T15:57:15.812Z,2.37
2018-10-01T15:59:44.661Z,2.07
2018-10-01T16:02:13.084Z,2.13
2018-10-01T16:04:41.496Z,2.80
2018-10-01T16:07:09.945Z,3.30
2018-10-01T16:09:38.322Z,3.23
2018-10-01T16:12:06.694Z,2.70
2018-10-01T16:14:35.068Z,2.50
2018-10-01T16:17:03.462Z,2.80
2018-10-01T16:19:31.942Z,2.57
2018-10-01T16:22:00.343Z,2.50
2018-10-01T16:24:28.738Z,2.70
2018-10-01T16:26:57.109Z,2.20
2018-10-01T16:29:25.553Z,1.70
2018-10-01T16:31:54.029Z,1.67
2018-10-01T16:34:22.429Z,1.10
2018-10-01T16:36:50.893Z,2.03
2018-10-01T16:39:19.427Z,3.40
2018-10-01T16:41:47.819Z,1.83
2018-10-01T16:44:16.237Z,1.73
2018-10-01T16:46:45.441Z,1.53
2018-10-01T16:49:13.864Z,2.70
2018-10-01T16:51:42.248Z,2.97
2018-10-01T16:54:10.701Z,3.07
2018-10-01T16:56:39.137Z,3.40
2018-10-01T16:59:07.645Z,2.17
2018-10-01T17:01:36.072Z,3.37
2018-10-01T17:04:04.517Z,8.33
2018-10-01T17:06:34.239Z,6.40
2018-10-01T17:09:05.402Z,3.87
2018-10-01T17:11:33.909Z,2.63
2018-10-01T17:14:02.314Z,1.87
2018-10-01T17:16:30.670Z,3.43
2018-10-01T17:18:59.148Z,1.70
2018-10-01T17:21:27.778Z,1.33
2018-10-01T17:23:56.270Z,1.50
2018-10-01T17:26:25.337Z,1.43
2018-10-01T17:28:53.928Z,1.70
2018-10-01T17:31:22.405Z,1.90
2018-10-01T17:33:50.962Z,1.77
2018-10-01T17:36:19.690Z,2.30
2018-10-01T17:38:48.190Z,2.40
2018-10-01T17:41:16.620Z,1.70
2018-10-01T17:43:45.106Z,2.00
2018-10-01T17:46:13.524Z,2.90
2018-10-01T17:48:42.032Z,2.50
2018-10-01T17:51:10.604Z,2.40
2018-10-01T17:53:41.980Z,4.77
2018-10-01T17:56:10.324Z,6.50
2018-10-01T17:58:38.792Z,5.47
2018-10-01T18:01:07.758Z,4.80
2018-10-01T18:03:36.255Z,4.17
2018-10-01T18:06:04.695Z,2.30
2018-10-01T18:08:33.228Z,2.70
2018-10-01T18:11:01.858Z,2.50
2018-10-01T18:13:30.302Z,1.87
2018-10-01T18:15:58.909Z,2.50
2018-10-01T18:18:27.548Z,2.33
2018-10-01T18:20:56.090Z,2.00
2018-10-01T18:23:24.599Z,2.00
2018-10-01T18:25:53.108Z,2.67
2018-10-01T18:28:21.622Z,1.90
2018-10-01T18:30:50.054Z,3.00
2018-10-01T18:33:18.594Z,2.73
2018-10-01T18:35:47.034Z,7.67
2018-10-01T18:38:15.889Z,18.40
2018-10-01T18:40:44.732Z,9.73
2018-10-01T18:43:13.524Z,7.60
2018-10-01T18:45:42.210Z,6.73
2018-10-01T18:48:10.838Z,5.00
2018-10-01T18:50:39.464Z,10.70
2018-10-01T18:53:08.161Z,3.97
2018-10-01T18:55:36.779Z,4.57
2018-10-01T18:58:05.250Z,5.07
2018-10-01T19:00:33.859Z,3.63
2018-10-01T19:03:02.571Z,2.60
2018-10-01T19:05:31.187Z,2.70
2018-10-01T19:07:59.748Z,2.93
2018-10-01T19:10:28.373Z,4.00
2018-10-01T19:13:02.082Z,3.10
2018-10-01T19:15:33.244Z,3.23
2018-10-01T19:18:03.561Z,2.73
2018-10-01T19:20:32.675Z,3.83
2018-10-01T19:23:01.647Z,2.73
2018-10-01T19:25:30.573Z,2.00
2018-10-01T19:27:59.743Z,2.20
2018-10-01T19:30:28.777Z,2.43
2018-10-01T19:32:57.761Z,2.60
2018-10-01T19:35:26.771Z,2.57
2018-10-01T19:37:55.963Z,2.50
2018-10-01T19:40:25.097Z,2.40
2018-10-01T19:42:54.113Z,2.60
2018-10-01T19:45:23.540Z,1.80
2018-10-01T19:47:52.779Z,2.33
2018-10-01T19:50:21.794Z,3.00
2018-10-01T19:52:51.225Z,3.13
2018-10-01T19:55:20.739Z,2.00
2018-10-01T19:57:49.796Z,2.10
2018-10-01T20:00:19.195Z,2.47
2018-10-01T20:02:48.181Z,2.40
2018-10-01T20:05:17.225Z,2.07
2018-10-01T20:07:46.344Z,2.57
2018-10-01T20:10:15.558Z,2.70
2018-10-01T20:12:44.564Z,2.87
2018-10-01T20:15:13.808Z,2.50
2018-10-01T20:17:43.027Z,4.57
2018-10-01T20:20:12.225Z,2.10
2018-10-01T20:22:41.534Z,2.13
2018-10-01T20:25:10.518Z,2.37
2018-10-01T20:27:39.630Z,1.63
2018-10-01T20:30:09.107Z,2.10
2018-10-01T20:32:37.930Z,1.70
2018-10-01T20:35:06.782Z,2.87
2018-10-01T20:37:35.570Z,2.03
2018-10-01T20:40:04.445Z,2.40
2018-10-01T20:42:33.671Z,2.57
2018-10-01T20:45:02.925Z,2.60
2018-10-01T20:47:31.735Z,2.70
2018-10-01T20:50:00.627Z,2.30
2018-10-01T20:52:29.629Z,1.50
2018-10-01T20:54:58.732Z,1.70
2018-10-01T20:57:27.229Z,1.83
2018-10-01T20:59:55.887Z,2.20
2018-10-01T21:02:24.649Z,2.50
2018-10-01T21:04:53.247Z,1.90
2018-10-01T21:07:21.779Z,2.63
2018-10-01T21:09:50.442Z,2.37
2018-10-01T21:12:19.077Z,3.33
2018-10-01T21:14:47.582Z,2.13
2018-10-01T21:17:16.076Z,1.70
2018-10-01T21:19:44.713Z,2.37
2018-10-01T21:22:14.622Z,3.17
2018-10-01T21:24:43.675Z,1.67
2018-10-01T21:27:29.108Z,2.37
2018-10-01T21:29:57.687Z,1.87
2018-10-01T21:32:26.323Z,1.80
2018-10-01T21:34:54.777Z,1.60
2018-10-01T21:37:23.390Z,1.73
2018-10-01T21:40:02.257Z,2.10
2018-10-01T21:42:30.793Z,2.10
2018-10-01T21:44:59.958Z,1.97
2018-10-01T21:47:29.169Z,2.03
2018-10-01T21:49:57.624Z,1.87
2018-10-01T21:52:27.244Z,2.93
2018-10-01T21:54:56.174Z,1.97
2018-10-01T21:57:24.730Z,2.03
2018-10-01T21:59:53.152Z,1.90
2018-10-01T22:02:21.839Z,1.97
2018-10-01T22:04:50.306Z,2.17
2018-10-01T22:07:19.411Z,2.23
2018-10-01T22:09:49.901Z,2.07
2018-10-01T22:12:18.373Z,1.73
2018-10-01T22:14:46.822Z,2.60
2018-10-01T22:17:15.203Z,2.50
2018-10-01T22:19:43.665Z,2.53
2018-10-01T22:22:12.160Z,1.87
2018-10-01T22:24:40.637Z,2.00
2018-10-01T22:27:09.080Z,1.90
2018-10-01T22:29:37.550Z,2.33
2018-10-01T22:32:06.080Z,2.43
2018-10-01T22:34:34.496Z,2.53
2018-10-01T22:37:02.919Z,2.30
2018-10-01T22:39:31.379Z,1.80
2018-10-01T22:41:59.824Z,2.57
2018-10-01T22:44:28.340Z,2.27
2018-10-01T22:46:56.677Z,2.13
2018-10-01T22:49:25.155Z,1.77
2018-10-01T22:51:53.590Z,2.13
2018-10-01T22:54:21.948Z,1.80
2018-10-01T22:56:50.267Z,2.10
2018-10-01T22:59:19.330Z,2.47
2018-10-01T23:01:47.747Z,2.03
2018-10-01T23:04:16.111Z,2.73
2018-10-01T23:06:44.528Z,1.97
2018-10-01T23:09:12.896Z,2.43
2018-10-01T23:11:41.338Z,2.47
2018-10-01T23:14:09.679Z,2.33
2018-10-01T23:16:38.077Z,2.63
2018-10-01T23:19:06.474Z,2.10
2018-10-01T23:21:35.204Z,2.33
2018-10-01T23:24:03.790Z,2.33
2018-10-01T23:26:32.375Z,1.90
2018-10-01T23:29:00.750Z,2.13
2018-10-01T23:31:29.156Z,1.57
2018-10-01T23:33:57.494Z,2.40
2018-10-01T23:36:25.786Z,1.67
2018-10-01T23:38:54.166Z,2.20
2018-10-01T23:41:22.592Z,1.67
2018-10-01T23:43:51.102Z,1.97
2018-10-01T23:46:20.241Z,1.80
2018-10-01T23:48:48.604Z,1.83
2018-10-01T23:51:17.046Z,1.80
2018-10-01T23:53:45.501Z,1.50
2018-10-01T23:56:13.851Z,2.17
2018-10-01T23:58:42.246Z,1.70
